Time;durP1;ratioP1;P1;durP2;ratioP2;P2;SDS_P1;SDS_P2;PMS_P1;PMS_P2;Temp;Humidity;BMP_temperature;BMP_pressure;BME280_temperature;BME280_humidity;BME280_pressure;Samples;Min_cycle;Max_cycle;Signal;HPM_P1;HPM_P2
2021/04/13 00:00:06;;;;;;;4.33;2.60;;;;;;;;;;5099702;28;20028;-57
2021/04/13 00:05:49;;;;;;;2.47;1.35;;;;;;;;;;5098781;28;20030;-57
2021/04/13 00:08:27;;;;;;;3.90;1.97;;;;;;;;;;5098797;28;20016;-57
2021/04/13 00:11:25;;;;;;;3.17;2.13;;;;;;;;;;5097824;28;20130;-57
2021/04/13 00:14:17;;;;;;;3.67;2.07;;;;;;;;;;5092486;28;20032;-57
2021/04/13 00:16:51;;;;;;;3.23;2.10;;;;;;;;;;5098577;28;20442;-56
2021/04/13 00:19:48;;;;;;;5.50;2.40;;;;;;;;;;5096528;28;20113;-57
2021/04/13 00:22:33;;;;;;;;;;;;;;;;;;;;;
2021/04/13 00:25:12;;;;;;;2.40;1.70;;;;;;;;;;5097202;28;20115;-57
2021/04/13 00:28:02;;;;;;;2.63;2.10;;;;;;;;;;5098449;28;20063;-57
2021/04/13 00:30:59;;;;;;;;;;;;;;;;;;;;;
2021/04/13 00:33:46;;;;;;;3.00;2.07;;;;;;;;;;5095431;28;20142;-57
2021/04/13 00:40:11;;;;;;;3.45;2.40;;;;;;;;;;5035809;28;20029;-57
2021/04/13 00:46:27;;;;;;;;;;;;;;;;;;;;;
2021/04/13 00:49:00;;;;;;;4.00;2.50;;;;;;;;;;5097390;28;20083;-57
2021/04/13 00:51:46;;;;;;;5.10;3.13;;;;;;;;;;5097165;28;20111;-57
2021/04/13 00:54:20;;;;;;;3.40;3.07;;;;;;;;;;5097123;28;20024;-57
2021/04/13 00:57:08;;;;;;;6.93;4.67;;;;;;;;;;5097781;28;20024;-58
2021/04/13 01:05:58;;;;;;;4.60;4.13;;;;;;;;;;5072245;28;20048;-57
2021/04/13 01:09:07;;;;;;;6.73;5.40;;;;;;;;;;5076944;28;20028;-57
2021/04/13 01:11:59;;;;;;;7.70;6.20;;;;;;;;;;5074728;28;20036;-58
2021/04/13 01:17:23;;;;;;;;;;;;;;;;;;;;;
2021/04/13 01:20:11;;;;;;;7.50;6.70;;;;;;;;;;5076618;28;20104;-57
2021/04/13 01:25:44;;;;;;;12.23;7.67;;;;;;;;;;5076597;28;20086;-58
2021/04/13 01:28:26;;;;;;;14.50;9.30;;;;;;;;;;5076601;28;20025;-57
2021/04/13 01:31:08;;;;;;;11.30;9.43;;;;;;;;;;5075043;28;20028;-56
2021/04/13 01:36:29;;;;;;;10.67;9.27;;;;;;;;;;5071777;28;20029;-58
2021/04/13 01:39:25;;;;;;;12.30;10.80;;;;;;;;;;5075312;28;20037;-58
2021/04/13 01:45:34;;;;;;;14.80;9.63;;;;;;;;;;5075749;28;20032;-58
2021/04/13 01:48:09;;;;;;;14.77;10.57;;;;;;;;;;5075730;28;20025;-57
2021/04/13 01:50:51;;;;;;;13.80;11.40;;;;;;;;;;5075928;28;20024;-58
2021/04/13 01:53:34;;;;;;;14.87;10.67;;;;;;;;;;5075941;28;20048;-58
2021/04/13 01:56:08;;;;;;;10.77;9.53;;;;;;;;;;5076229;28;20051;-58
2021/04/13 01:59:00;;;;;;;10.30;9.07;;;;;;;;;;5075592;28;20025;-58
2021/04/13 02:01:33;;;;;;;;;;;;;;;;;;5074633;28;20102;-58
2021/04/13 02:04:17;;;;;;;12.30;8.93;;;;;;;;;;5089916;28;19941;-58
2021/04/13 02:07:08;;;;;;;9.70;7.90;;;;;;;;;;5073371;28;20397;-57
2021/04/13 02:09:59;;;;;;;9.95;7.70;;;;;;;;;;5056634;28;20020;-57
2021/04/13 02:12:37;;;;;;;9.02;7.88;;;;;;;;;;5055788;28;20367;-58
2021/04/13 02:15:27;;;;;;;11.97;9.67;;;;;;;;;;5063556;28;20226;-58
2021/04/13 02:18:02;;;;;;;;;;;;;;;;;;5074319;28;20032;-58
2021/04/13 02:23:35;;;;;;;9.95;7.72;;;;;;;;;;5056792;28;20043;-58
2021/04/13 02:26:25;;;;;;;7.80;7.07;;;;;;;;;;5073795;28;20178;-57
2021/04/13 02:29:13;;;;;;;9.07;8.13;;;;;;;;;;5073301;28;20029;-58
2021/04/13 02:31:47;;;;;;;8.80;6.63;;;;;;;;;;5055263;28;20128;-57
2021/04/13 02:34:18;;;;;;;8.07;7.03;;;;;;;;;;5073170;28;20521;-58
2021/04/13 02:37:03;;;;;;;11.23;6.93;;;;;;;;;;5074961;28;20055;-58
2021/04/13 02:39:51;;;;;;;7.57;6.10;;;;;;;;;;5095435;28;20028;-57
2021/04/13 02:42:45;;;;;;;9.67;6.80;;;;;;;;;;5096300;28;20043;-57
2021/04/13 02:45:33;;;;;;;9.53;6.87;;;;;;;;;;5096101;28;20039;-58
2021/04/13 02:48:16;;;;;;;10.43;7.13;;;;;;;;;;5096798;28;20028;-58
2021/04/13 02:50:56;;;;;;;7.67;6.30;;;;;;;;;;5096350;28;20048;-58
2021/04/13 02:59:23;;;;;;;9.63;6.17;;;;;;;;;;5095872;28;20036;-57
2021/04/13 03:01:58;;;;;;;6.93;5.83;;;;;;;;;;5095893;28;20036;-57
2021/04/13 03:04:58;;;;;;;8.97;6.27;;;;;;;;;;5095470;28;20048;-57
2021/04/13 03:07:28;;;;;;;;;;;;;;;;;;5096792;28;20020;-58
2021/04/13 03:09:58;;;;;;;6.83;5.53;;;;;;;;;;5094573;28;19946;-57
2021/04/13 03:16:01;;;;;;;5.07;4.13;;;;;;;;;;5096044;28;20027;-57
2021/04/13 03:18:43;;;;;;;6.18;5.47;;;;;;;;;;5096198;28;20028;-57
2021/04/13 03:24:21;;;;;;;6.00;4.63;;;;;;;;;;5096536;28;20112;-58
2021/04/13 03:27:02;;;;;;;6.37;4.70;;;;;;;;;;5099081;28;20039;-58
2021/04/13 03:29:47;;;;;;;6.00;5.43;;;;;;;;;;5100019;28;20028;-58
2021/04/13 03:35:55;;;;;;;5.60;5.00;;;;;;;;;;5097092;28;20108;-57
2021/04/13 03:38:31;;;;;;;6.90;4.70;;;;;;;;;;5088868;28;20044;-57
2021/04/13 03:41:06;;;;;;;7.07;5.50;;;;;;;;;;5094397;28;20169;-58
2021/04/13 03:44:17;;;;;;;5.20;4.43;;;;;;;;;;5097422;28;20020;-56
2021/04/13 03:47:08;;;;;;;8.57;5.55;;;;;;;;;;5094848;28;20057;-57
2021/04/13 03:50:13;;;;;;;6.10;5.50;;;;;;;;;;5098139;28;20055;-57
2021/04/13 03:52:59;;;;;;;7.77;5.20;;;;;;;;;;5097227;28;20032;-56
2021/04/13 03:56:11;;;;;;;6.33;4.73;;;;;;;;;;5097936;28;20099;-60
2021/04/13 03:59:00;;;;;;;6.33;5.33;;;;;;;;;;5096969;28;20058;-55
2021/04/13 04:05:18;;;;;;;5.97;4.67;;;;;;;;;;5096102;28;20044;-57
2021/04/13 04:08:11;;;;;;;4.67;4.20;;;;;;;;;;5095681;28;20047;-55
2021/04/13 04:11:09;;;;;;;;;;;;;;;;;;;;;
2021/04/13 04:13:59;;;;;;;8.80;5.30;;;;;;;;;;5097471;28;20111;-58
2021/04/13 04:17:00;;;;;;;8.90;4.93;;;;;;;;;;5095612;28;20130;-58
2021/04/13 04:19:30;;;;;;;;;;;;;;;;;;5071373;28;20462;-58
2021/04/13 04:22:32;;;;;;;5.72;4.80;;;;;;;;;;5095370;28;20357;-57
2021/04/13 04:25:32;;;;;;;5.57;4.73;;;;;;;;;;4998165;28;20038;-58
2021/04/13 04:28:21;;;;;;;5.40;4.43;;;;;;;;;;5014791;28;20094;-58
2021/04/13 04:34:27;;;;;;;7.57;4.93;;;;;;;;;;4994186;28;20531;-55
2021/04/13 04:40:03;;;;;;;7.10;5.40;;;;;;;;;;5061137;28;20039;-57
2021/04/13 04:42:56;;;;;;;5.57;4.17;;;;;;;;;;5054403;28;20481;-57
2021/04/13 04:45:44;;;;;;;10.27;5.57;;;;;;;;;;5085004;28;20024;-58
2021/04/13 04:48:36;;;;;;;7.10;5.73;;;;;;;;;;5093653;28;20036;-56
2021/04/13 04:51:11;;;;;;;6.33;5.33;;;;;;;;;;5096490;28;20082;-58
2021/04/13 04:54:07;;;;;;;7.63;6.50;;;;;;;;;;5095465;28;20023;-57
2021/04/13 04:56:59;;;;;;;8.40;5.60;;;;;;;;;;5023046;28;20026;-57
2021/04/13 04:59:35;;;;;;;7.57;5.97;;;;;;;;;;5084239;28;20434;-58
2021/04/13 05:02:16;;;;;;;8.97;6.87;;;;;;;;;;5075336;28;20438;-57
2021/04/13 05:04:45;;;;;;;6.47;5.47;;;;;;;;;;5094059;28;20504;-57
2021/04/13 05:07:25;;;;;;;6.43;5.40;;;;;;;;;;5093842;28;20481;-55
2021/04/13 05:10:09;;;;;;;7.10;6.40;;;;;;;;;;5093929;28;20063;-58
2021/04/13 05:12:57;;;;;;;7.23;5.77;;;;;;;;;;5094624;28;20353;-57
2021/04/13 05:15:55;;;;;;;5.97;5.33;;;;;;;;;;5095924;28;20195;-57
2021/04/13 05:18:42;;;;;;;9.63;7.17;;;;;;;;;;5087157;28;20501;-57
2021/04/13 05:21:28;;;;;;;8.33;5.93;;;;;;;;;;5095813;28;20043;-57
2021/04/13 05:24:12;;;;;;;7.47;5.27;;;;;;;;;;5094858;28;20023;-57
2021/04/13 05:27:07;;;;;;;7.63;5.07;;;;;;;;;;5095968;28;20099;-57
2021/04/13 05:29:56;;;;;;;9.80;6.03;;;;;;;;;;5092726;28;20485;-57
2021/04/13 05:32:25;;;;;;;8.67;5.50;;;;;;;;;;5096155;28;20024;-58
2021/04/13 05:35:20;;;;;;;8.20;5.20;;;;;;;;;;5095377;28;20107;-57
2021/04/13 05:37:59;;;;;;;8.27;5.93;;;;;;;;;;5088594;28;20531;-58
2021/04/13 05:40:45;;;;;;;7.70;5.85;;;;;;;;;;5095686;28;20122;-57
2021/04/13 05:43:46;;;;;;;7.68;5.45;;;;;;;;;;5093803;28;20109;-58
2021/04/13 05:46:27;;;;;;;;;;;;;;;;;;5094672;28;20032;-58
2021/04/13 05:49:09;;;;;;;5.68;4.32;;;;;;;;;;5095777;28;19905;-57
2021/04/13 05:54:44;;;;;;;4.60;4.07;;;;;;;;;;5095534;28;20411;-60
2021/04/13 05:57:34;;;;;;;7.72;5.78;;;;;;;;;;5084061;28;20442;-57
2021/04/13 06:00:32;;;;;;;6.53;5.72;;;;;;;;;;5092974;28;20044;-57
2021/04/13 06:02:59;;;;;;;6.10;4.68;;;;;;;;;;5094941;28;20462;-55
2021/04/13 06:05:52;;;;;;;6.70;5.80;;;;;;;;;;5075856;28;20040;-57
2021/04/13 06:11:30;;;;;;;6.32;5.60;;;;;;;;;;5094444;28;20105;-57
2021/04/13 06:14:23;;;;;;;6.13;5.15;;;;;;;;;;5073312;28;20032;-57
2021/04/13 06:17:00;;;;;;;6.03;5.28;;;;;;;;;;5094623;28;20085;-57
2021/04/13 06:20:01;;;;;;;6.25;4.93;;;;;;;;;;5076572;28;20028;-56
2021/04/13 06:22:54;;;;;;;9.45;5.95;;;;;;;;;;5095009;28;20032;-57
2021/04/13 06:25:22;;;;;;;5.22;4.25;;;;;;;;;;5094274;28;20036;-57
2021/04/13 06:28:00;;;;;;;8.85;6.28;;;;;;;;;;5094137;28;20035;-57
2021/04/13 06:33:53;;;;;;;7.13;5.57;;;;;;;;;;5094753;28;20034;-59
2021/04/13 06:36:26;;;;;;;6.82;6.07;;;;;;;;;;5090326;28;20047;-58
2021/04/13 06:39:14;;;;;;;7.70;6.28;;;;;;;;;;5095388;28;20024;-59
2021/04/13 06:42:17;;;;;;;;;;;;;;;;;;;;;
2021/04/13 06:48:06;;;;;;;7.22;5.57;;;;;;;;;;5094507;28;20504;-59
2021/04/13 06:51:00;;;;;;;8.40;7.00;;;;;;;;;;5094456;28;20111;-59
2021/04/13 06:53:47;;;;;;;8.10;6.33;;;;;;;;;;5076165;28;20772;-58
2021/04/13 06:56:35;;;;;;;6.28;5.20;;;;;;;;;;5094577;28;20522;-58
2021/04/13 06:59:28;;;;;;;9.63;6.10;;;;;;;;;;5092374;28;20061;-58
2021/04/13 07:02:14;;;;;;;8.13;6.70;;;;;;;;;;5075224;28;20043;-59
2021/04/13 07:05:11;;;;;;;8.87;7.80;;;;;;;;;;5093245;28;20056;-58
2021/04/13 07:08:12;;;;;;;11.13;7.22;;;;;;;;;;5075191;28;20482;-57
2021/04/13 07:11:23;;;;;;;8.77;7.23;;;;;;;;;;5075019;28;20343;-58
2021/04/13 07:13:54;;;;;;;8.00;6.90;;;;;;;;;;5057852;28;20390;-57
2021/04/13 07:17:01;;;;;;;10.73;7.90;;;;;;;;;;5075246;28;20170;-58
2021/04/13 07:20:08;;;;;;;9.95;7.70;;;;;;;;;;5075262;28;20512;-58
2021/04/13 07:22:39;;;;;;;8.30;7.40;;;;;;;;;;5093159;28;20465;-58
2021/04/13 07:25:29;;;;;;;9.38;7.13;;;;;;;;;;5094013;28;20111;-58
2021/04/13 07:28:05;;;;;;;8.07;6.60;;;;;;;;;;5075819;28;20485;-58
2021/04/13 07:33:32;;;;;;;9.25;8.35;;;;;;;;;;5093487;28;20039;-59
2021/04/13 07:36:10;;;;;;;9.57;7.50;;;;;;;;;;5075136;28;20028;-58
2021/04/13 07:38:59;;;;;;;9.55;7.80;;;;;;;;;;5074680;28;20382;-59
2021/04/13 07:44:43;;;;;;;13.30;9.38;;;;;;;;;;5063275;28;20028;-58
2021/04/13 07:47:40;;;;;;;9.23;7.57;;;;;;;;;;5075904;28;20039;-59
2021/04/13 07:50:43;;;;;;;7.80;7.03;;;;;;;;;;5094054;28;20348;-59
2021/04/13 07:53:32;;;;;;;8.18;7.20;;;;;;;;;;5092305;28;20036;-59
2021/04/13 07:56:17;;;;;;;9.07;7.82;;;;;;;;;;5045890;28;20028;-58
2021/04/13 07:58:53;;;;;;;9.20;8.30;;;;;;;;;;5074265;28;20071;-58
2021/04/13 08:01:28;;;;;;;7.57;6.88;;;;;;;;;;5093268;28;20370;-57
2021/04/13 08:03:57;;;;;;;8.30;6.10;;;;;;;;;;5092679;28;20056;-59
2021/04/13 08:06:37;;;;;;;10.32;7.30;;;;;;;;;;5075715;28;20326;-57
2021/04/13 08:09:25;;;;;;;8.40;7.57;;;;;;;;;;5094382;28;20024;-58
2021/04/13 08:15:37;;;;;;;10.17;8.63;;;;;;;;;;5061736;28;20361;-59
2021/04/13 08:18:13;;;;;;;8.17;7.37;;;;;;;;;;5025201;28;20539;-57
2021/04/13 08:20:48;;;;;;;9.83;8.77;;;;;;;;;;5096676;28;20446;-59
2021/04/13 08:23:36;;;;;;;12.13;9.10;;;;;;;;;;5094359;28;20486;-58
2021/04/13 08:26:25;;;;;;;14.65;10.70;;;;;;;;;;5096520;28;20024;-58
2021/04/13 08:29:10;;;;;;;11.40;8.88;;;;;;;;;;5096809;28;20024;-57
2021/04/13 08:34:59;;;;;;;;;;;;;;;;;;5076709;28;20112;-59
2021/04/13 08:37:53;;;;;;;5.93;4.93;;;;;;;;;;5097382;28;20253;-58
2021/04/13 08:40:44;;;;;;;8.87;6.23;;;;;;;;;;5096990;28;20039;-59
2021/04/13 08:43:40;;;;;;;8.13;6.70;;;;;;;;;;5095682;28;20043;-59
2021/04/13 08:46:39;;;;;;;8.23;7.28;;;;;;;;;;5089193;28;20173;-59
2021/04/13 08:49:38;;;;;;;;;;;;;;;;;;;;;
2021/04/13 08:52:30;;;;;;;9.50;8.48;;;;;;;;;;5094612;28;20469;-58
2021/04/13 08:55:13;;;;;;;9.63;8.10;;;;;;;;;;5095421;28;20187;-58
2021/04/13 08:58:09;;;;;;;10.05;7.65;;;;;;;;;;5077342;28;20044;-58
2021/04/13 09:00:49;;;;;;;9.27;7.70;;;;;;;;;;5094700;28;20142;-58
2021/04/13 09:03:56;;;;;;;9.85;8.77;;;;;;;;;;5093082;28;20067;-58
2021/04/13 09:06:40;;;;;;;8.40;7.13;;;;;;;;;;5057675;28;20056;-58
2021/04/13 09:09:26;;;;;;;9.85;7.25;;;;;;;;;;5072917;28;20037;-59
2021/04/13 09:12:05;;;;;;;11.38;8.90;;;;;;;;;;5073047;28;20510;-57
2021/04/13 09:14:50;;;;;;;;;;;;;;;;;;;;;
2021/04/13 09:17:51;;;;;;;12.68;8.85;;;;;;;;;;5072788;28;20040;-58
2021/04/13 09:20:34;;;;;;;;;;;;;;;;;;4977316;28;20504;-58
2021/04/13 09:23:21;;;;;;;8.00;6.60;;;;;;;;;;5071987;28;19998;-59
2021/04/13 09:26:09;;;;;;;9.68;7.13;;;;;;;;;;5055246;28;20441;-58
2021/04/13 09:28:56;;;;;;;8.35;7.28;;;;;;;;;;5053781;28;20459;-59
2021/04/13 09:34:42;;;;;;;7.50;6.00;;;;;;;;;;5094320;28;20070;-58
2021/04/13 09:37:27;;;;;;;7.28;6.57;;;;;;;;;;5092320;28;20378;-59
2021/04/13 09:40:27;;;;;;;8.80;7.15;;;;;;;;;;5075404;28;20029;-58
2021/04/13 09:43:12;;;;;;;9.07;6.45;;;;;;;;;;5076669;28;20466;-58
2021/04/13 09:49:01;;;;;;;7.65;6.00;;;;;;;;;;5086473;28;20370;-59
2021/04/13 09:51:45;;;;;;;7.95;6.57;;;;;;;;;;5076069;28;20035;-58
2021/04/13 09:54:17;;;;;;;8.48;6.47;;;;;;;;;;5093780;28;20135;-59
2021/04/13 09:56:53;;;;;;;6.88;6.18;;;;;;;;;;5088463;28;20075;-59
2021/04/13 09:59:54;;;;;;;;;;;;;;;;;;;;;
2021/04/13 10:05:47;;;;;;;;;;;;;;;;;;;;;
2021/04/13 10:08:25;;;;;;;8.20;7.32;;;;;;;;;;5077145;28;20032;-58
2021/04/13 10:13:57;;;;;;;6.85;5.95;;;;;;;;;;5094377;28;20036;-58
2021/04/13 10:16:51;;;;;;;9.50;6.65;;;;;;;;;;5094080;28;20112;-58
2021/04/13 10:26:04;;;;;;;6.07;4.90;;;;;;;;;;4992662;28;20139;-59
2021/04/13 10:29:02;;;;;;;;;;;;;;;;;;;;;
2021/04/13 10:31:53;;;;;;;7.45;6.28;;;;;;;;;;5094030;28;20066;-59
2021/04/13 10:34:31;;;;;;;7.07;5.30;;;;;;;;;;5075658;28;20051;-59
2021/04/13 10:37:28;;;;;;;;;;;;;;;;;;;;;
2021/04/13 10:40:18;;;;;;;7.43;6.65;;;;;;;;;;5089482;28;20042;-58
2021/04/13 10:43:03;;;;;;;7.75;6.28;;;;;;;;;;5075742;28;20039;-58
2021/04/13 10:45:45;;;;;;;6.90;5.22;;;;;;;;;;5075086;28;20032;-58
2021/04/13 10:48:42;;;;;;;;;;;;;;;;;;;;;
2021/04/13 10:51:27;;;;;;;10.52;6.07;;;;;;;;;;5090385;28;20111;-58
2021/04/13 10:54:21;;;;;;;7.85;5.35;;;;;;;;;;5093748;28;20028;-59
2021/04/13 10:57:28;;;;;;;8.48;5.38;;;;;;;;;;5076475;28;20028;-56
2021/04/13 11:00:16;;;;;;;6.78;5.40;;;;;;;;;;4990388;28;20056;-58
2021/04/13 11:03:11;;;;;;;;;;;;;;;;;;;;;
2021/04/13 11:09:14;;;;;;;9.60;5.53;;;;;;;;;;5094817;28;20040;-59
2021/04/13 11:14:52;;;;;;;10.48;5.35;;;;;;;;;;5082501;28;20118;-58
2021/04/13 11:23:41;;;;;;;5.88;4.95;;;;;;;;;;5062086;28;20180;-60
2021/04/13 11:26:26;;;;;;;4.57;4.07;;;;;;;;;;5094351;28;20043;-58
2021/04/13 11:32:41;;;;;;;6.70;4.93;;;;;;;;;;5093673;28;20031;-59
2021/04/13 11:35:20;;;;;;;7.15;5.18;;;;;;;;;;5090499;28;20028;-59
2021/04/13 11:38:13;;;;;;;7.70;5.10;;;;;;;;;;5074202;28;20043;-58
2021/04/13 11:46:54;;;;;;;5.40;4.22;;;;;;;;;;5066094;28;20490;-58
2021/04/13 11:50:00;;;;;;;5.70;3.60;;;;;;;;;;5079925;28;20101;-58
2021/04/13 11:55:34;;;;;;;6.28;5.00;;;;;;;;;;5097453;28;20085;-59
2021/04/13 12:04:21;;;;;;;5.32;3.95;;;;;;;;;;5088607;28;20048;-59
2021/04/13 12:07:04;;;;;;;4.70;3.63;;;;;;;;;;5097282;28;20117;-59
2021/04/13 12:10:00;;;;;;;5.22;3.45;;;;;;;;;;5078932;28;20029;-59
2021/04/13 12:12:41;;;;;;;5.00;4.00;;;;;;;;;;5078705;28;20099;-58
2021/04/13 12:15:08;;;;;;;6.68;3.67;;;;;;;;;;5096553;28;20111;-59
2021/04/13 12:17:52;;;;;;;6.53;4.47;;;;;;;;;;5097034;28;20059;-59
2021/04/13 12:23:03;;;;;;;4.03;2.50;;;;;;;;;;5096735;28;20119;-59
2021/04/13 12:25:48;;;;;;;5.80;3.30;;;;;;;;;;5097348;28;20358;-58
2021/04/13 12:28:32;;;;;;;4.50;3.63;;;;;;;;;;5096637;28;20079;-59
2021/04/13 12:34:52;;;;;;;7.00;4.30;;;;;;;;;;5096346;28;20110;-59
2021/04/13 12:37:36;;;;;;;2.40;2.13;;;;;;;;;;5096004;28;20035;-59
2021/04/13 12:40:21;;;;;;;5.63;3.40;;;;;;;;;;5096513;28;20082;-59
2021/04/13 12:43:28;;;;;;;4.80;3.20;;;;;;;;;;5093132;28;20062;-59
2021/04/13 12:49:08;;;;;;;3.85;2.50;;;;;;;;;;5096652;28;20119;-59
2021/04/13 12:51:53;;;;;;;4.20;2.90;;;;;;;;;;5096066;28;20028;-59
2021/04/13 12:55:11;;;;;;;3.58;2.65;;;;;;;;;;5095348;28;20028;-59
2021/04/13 12:58:12;;;;;;;3.03;2.20;;;;;;;;;;5096043;28;20113;-59
2021/04/13 13:00:50;;;;;;;3.95;2.35;;;;;;;;;;5029795;28;20038;-59
2021/04/13 13:03:38;;;;;;;3.60;2.78;;;;;;;;;;5013586;28;20026;-58
2021/04/13 13:06:35;;;;;;;3.40;2.38;;;;;;;;;;5009979;28;20038;-59
2021/04/13 13:09:06;;;;;;;3.92;2.60;;;;;;;;;;5001638;28;20210;-59
2021/04/13 13:11:35;;;;;;;3.40;2.10;;;;;;;;;;5073329;28;20040;-59
2021/04/13 13:14:27;;;;;;;4.30;2.50;;;;;;;;;;5075686;28;20120;-58
2021/04/13 13:17:09;;;;;;;3.13;2.00;;;;;;;;;;5063319;28;20177;-60
2021/04/13 13:19:47;;;;;;;4.80;2.75;;;;;;;;;;5076019;28;20029;-57
2021/04/13 13:22:25;;;;;;;8.18;3.03;;;;;;;;;;5075423;28;20036;-57
2021/04/13 13:24:56;;;;;;;5.07;2.33;;;;;;;;;;5056740;28;20093;-57
2021/04/13 13:27:30;;;;;;;3.05;2.03;;;;;;;;;;5044321;28;20385;-58
2021/04/13 13:30:13;;;;;;;3.40;2.63;;;;;;;;;;5075566;28;20175;-57
2021/04/13 13:35:50;;;;;;;5.40;2.95;;;;;;;;;;5055241;28;20025;-57
2021/04/13 13:38:39;;;;;;;4.80;3.78;;;;;;;;;;5055999;28;20043;-57
2021/04/13 13:41:09;;;;;;;5.57;3.00;;;;;;;;;;5054319;28;20025;-58
2021/04/13 13:43:59;;;;;;;4.10;3.43;;;;;;;;;;5074830;28;20044;-58
2021/04/13 13:46:32;;;;;;;4.47;2.97;;;;;;;;;;5074586;28;20255;-55
2021/04/13 13:49:35;;;;;;;7.13;3.65;;;;;;;;;;5056673;28;20056;-58
2021/04/13 13:52:10;;;;;;;5.03;2.83;;;;;;;;;;5055860;28;20500;-57
2021/04/13 13:54:49;;;;;;;3.45;2.95;;;;;;;;;;5074989;28;20016;-57
2021/04/13 13:57:41;;;;;;;5.50;3.47;;;;;;;;;;5055880;28;20039;-58
2021/04/13 14:03:23;;;;;;;4.93;3.17;;;;;;;;;;5060243;28;20040;-58
2021/04/13 14:06:01;;;;;;;4.57;2.50;;;;;;;;;;5068827;28;20052;-58
2021/04/13 14:08:34;;;;;;;3.40;2.10;;;;;;;;;;5092039;28;20028;-57
2021/04/13 14:11:23;;;;;;;5.80;2.22;;;;;;;;;;5095071;28;20044;-57
2021/04/13 14:14:27;;;;;;;4.88;2.45;;;;;;;;;;5093115;28;20046;-58
2021/04/13 14:17:13;;;;;;;2.97;1.90;;;;;;;;;;5094032;28;20032;-58
2021/04/13 14:19:54;;;;;;;8.38;2.33;;;;;;;;;;5094633;28;20061;-57
2021/04/13 14:22:27;;;;;;;3.58;2.60;;;;;;;;;;5075971;28;20101;-58
2021/04/13 14:25:15;;;;;;;;;;;;;;;;;;;;;
2021/04/13 14:30:33;;;;;;;3.65;1.90;;;;;;;;;;5094013;28;20040;-57
2021/04/13 14:33:17;;;;;;;3.50;1.80;;;;;;;;;;5094926;28;20393;-58
2021/04/13 14:36:05;;;;;;;3.53;2.08;;;;;;;;;;5094167;28;20064;-58
2021/04/13 14:38:47;;;;;;;5.15;2.30;;;;;;;;;;5094985;28;20028;-58
2021/04/13 14:41:19;;;;;;;3.33;2.13;;;;;;;;;;5093616;28;20458;-58
2021/04/13 14:43:56;;;;;;;4.28;2.90;;;;;;;;;;5092995;28;20119;-58
2021/04/13 14:46:26;;;;;;;3.58;2.50;;;;;;;;;;5092572;28;20036;-58
2021/04/13 14:49:19;;;;;;;4.85;3.20;;;;;;;;;;5094246;28;20473;-58
2021/04/13 14:51:57;;;;;;;3.70;2.83;;;;;;;;;;5093855;28;20032;-57
2021/04/13 14:54:26;;;;;;;3.80;2.60;;;;;;;;;;5094844;28;20016;-58
2021/04/13 14:56:59;;;;;;;3.70;2.63;;;;;;;;;;5094807;28;20024;-56
2021/04/13 14:59:45;;;;;;;4.05;3.05;;;;;;;;;;5076474;28;20024;-57
2021/04/13 15:02:24;;;;;;;4.20;2.72;;;;;;;;;;5094255;28;20036;-58
2021/04/13 15:04:55;;;;;;;5.20;2.53;;;;;;;;;;5094220;28;20134;-58
2021/04/13 15:07:28;;;;;;;3.92;2.38;;;;;;;;;;5093637;28;20047;-57
2021/04/13 15:10:04;;;;;;;4.50;3.03;;;;;;;;;;5093335;28;20024;-58
2021/04/13 15:12:49;;;;;;;4.00;3.05;;;;;;;;;;5094773;28;20058;-58
2021/04/13 15:15:16;;;;;;;5.13;3.25;;;;;;;;;;5093289;28;20028;-58
2021/04/13 15:17:42;;;;;;;6.05;2.90;;;;;;;;;;5094108;28;20088;-57
2021/04/13 15:20:21;;;;;;;6.30;2.90;;;;;;;;;;5081098;28;20044;-57
2021/04/13 15:22:50;;;;;;;3.22;2.47;;;;;;;;;;5098493;28;20032;-58
2021/04/13 15:25:24;;;;;;;5.20;2.53;;;;;;;;;;5097783;28;20024;-57
2021/04/13 15:27:55;;;;;;;3.95;3.08;;;;;;;;;;5078943;28;20036;-57
2021/04/13 15:30:23;;;;;;;5.47;2.65;;;;;;;;;;5098404;28;20024;-57
2021/04/13 15:33:19;;;;;;;3.50;2.78;;;;;;;;;;5097777;28;20040;-58
2021/04/13 15:36:27;;;;;;;3.92;2.83;;;;;;;;;;5078997;28;20024;-57
2021/04/13 15:39:06;;;;;;;3.88;2.63;;;;;;;;;;5042279;28;20036;-58
2021/04/13 15:42:08;;;;;;;3.78;2.65;;;;;;;;;;5097336;28;20031;-56
2021/04/13 15:44:58;;;;;;;4.93;2.58;;;;;;;;;;5054132;28;20036;-57
2021/04/13 15:47:41;;;;;;;3.90;3.42;;;;;;;;;;5098174;28;20028;-56
2021/04/13 15:50:09;;;;;;;8.05;3.28;;;;;;;;;;5097633;28;20048;-56
2021/04/13 15:52:39;;;;;;;3.70;2.65;;;;;;;;;;5096712;28;20024;-58
2021/04/13 15:55:26;;;;;;;4.90;3.05;;;;;;;;;;5079881;28;20032;-57
2021/04/13 16:01:02;;;;;;;3.55;2.88;;;;;;;;;;5097455;28;20373;-56
2021/04/13 16:03:33;;;;;;;6.97;3.28;;;;;;;;;;5097293;28;20028;-56
2021/04/13 16:06:02;;;;;;;4.30;2.97;;;;;;;;;;5096270;28;20075;-56
2021/04/13 16:14:35;;;;;;;4.80;3.58;;;;;;;;;;5074672;28;20034;-57
2021/04/13 16:17:08;;;;;;;6.57;3.15;;;;;;;;;;5096931;28;20016;-56
2021/04/13 16:19:51;;;;;;;;;;;;;;;;;;;;;
2021/04/13 16:22:40;;;;;;;6.00;3.50;;;;;;;;;;5096084;28;20032;-57
2021/04/13 16:28:28;;;;;;;3.03;2.20;;;;;;;;;;5096726;28;20055;-57
2021/04/13 16:31:28;;;;;;;3.67;2.58;;;;;;;;;;5076825;28;20035;-57
2021/04/13 16:34:16;;;;;;;5.07;3.35;;;;;;;;;;5059226;28;20032;-56
2021/04/13 16:36:54;;;;;;;;;;;;;;;;;;;;;
2021/04/13 16:39:49;;;;;;;3.67;2.47;;;;;;;;;;5096112;28;20032;-57
2021/04/13 16:42:18;;;;;;;3.70;3.00;;;;;;;;;;5096114;28;20032;-57
2021/04/13 16:44:58;;;;;;;4.53;2.90;;;;;;;;;;5096402;28;20039;-57
2021/04/13 16:47:43;;;;;;;6.03;3.22;;;;;;;;;;5096857;28;20054;-57
2021/04/13 16:50:25;;;;;;;;;;;;;;;;;;;;;
2021/04/13 16:53:17;;;;;;;5.65;2.97;;;;;;;;;;5091727;28;20393;-57
2021/04/13 16:55:43;;;;;;;3.42;2.33;;;;;;;;;;5096266;28;20031;-57
2021/04/13 16:58:29;;;;;;;;;;;;;;;;;;;;;
2021/04/13 17:01:03;;;;;;;5.25;1.85;;;;;;;;;;5076637;28;20062;-57
2021/04/13 17:03:41;;;;;;;3.50;2.08;;;;;;;;;;5096082;28;20028;-57
2021/04/13 17:06:29;;;;;;;2.70;1.75;;;;;;;;;;5094862;28;20054;-56
2021/04/13 17:09:01;;;;;;;2.92;1.58;;;;;;;;;;5096018;28;20050;-57
2021/04/13 17:11:43;;;;;;;2.80;2.03;;;;;;;;;;5095627;28;20020;-56
2021/04/13 17:14:14;;;;;;;2.72;1.95;;;;;;;;;;5095696;28;20024;-58
2021/04/13 17:19:35;;;;;;;3.47;2.00;;;;;;;;;;5082470;28;20106;-55
2021/04/13 17:22:01;;;;;;;;;;;;;;;;;;5095745;28;20032;-58
2021/04/13 17:25:03;;;;;;;3.97;2.25;;;;;;;;;;5094996;28;19911;-55
2021/04/13 17:27:44;;;;;;;2.88;2.03;;;;;;;;;;5033794;28;20028;-57
2021/04/13 17:30:11;;;;;;;3.00;1.95;;;;;;;;;;5095273;28;20024;-57
2021/04/13 17:33:30;;;;;;;3.85;2.50;;;;;;;;;;5095896;28;20028;-57
2021/04/13 17:42:19;;;;;;;4.15;2.72;;;;;;;;;;5094567;28;20040;-57
2021/04/13 17:44:49;;;;;;;3.65;2.45;;;;;;;;;;5066226;28;20099;-57
2021/04/13 17:47:30;;;;;;;3.75;2.25;;;;;;;;;;5093857;28;20036;-58
2021/04/13 17:50:05;;;;;;;10.95;2.72;;;;;;;;;;5095983;28;20020;-57
2021/04/13 17:52:31;;;;;;;3.45;2.40;;;;;;;;;;5095500;28;20529;-57
2021/04/13 17:55:26;;;;;;;4.25;2.65;;;;;;;;;;5095589;28;20485;-57
2021/04/13 17:58:02;;;;;;;3.22;2.40;;;;;;;;;;5095746;28;20046;-57
2021/04/13 18:00:34;;;;;;;4.07;2.90;;;;;;;;;;5095725;28;20020;-57
2021/04/13 18:03:32;;;;;;;4.72;2.42;;;;;;;;;;5076479;28;20032;-57
2021/04/13 18:09:17;;;;;;;4.72;2.47;;;;;;;;;;5095089;28;20543;-57
2021/04/13 18:14:48;;;;;;;4.88;1.90;;;;;;;;;;5077008;28;20492;-57
2021/04/13 18:17:50;;;;;;;3.80;2.35;;;;;;;;;;5094735;28;20035;-56
2021/04/13 18:20:23;;;;;;;;;;;;;;;;;;5055575;28;20040;-55
2021/04/13 18:22:55;;;;;;;;;;;;;;;;;;5095068;28;20391;-57
2021/04/13 18:25:30;;;;;;;;;;;;;;;;;;5091609;28;19910;-58
2021/04/13 18:27:58;;;;;;;;;;;;;;;;;;5095293;28;19911;-58
2021/04/13 18:30:25;;;;;;;;;;;;;;;;;;5094475;28;19904;-57
2021/04/13 18:32:51;;;;;;;;;;;;;;;;;;5076564;28;19927;-58
2021/04/13 18:35:19;;;;;;;;;;;;;;;;;;5093637;28;19904;-57
2021/04/13 18:37:54;;;;;;;;;;;;;;;;;;5074737;28;19904;-58
2021/04/13 18:40:28;;;;;;;;;;;;;;;;;;5075871;28;19904;-58
2021/04/13 18:45:55;;;;;;;;;;;;;;;;;;5012580;28;19905;-58
2021/04/13 18:48:35;;;;;;;;;;;;;;;;;;5012548;28;19936;-58
2021/04/13 18:51:06;;;;;;;;;;;;;;;;;;5012847;28;20004;-58
2021/04/13 18:53:48;;;;;;;;;;;;;;;;;;5017194;28;19904;-57
2021/04/13 18:56:35;;;;;;;;;;;;;;;;;;5094215;28;19904;-58
2021/04/13 18:59:21;;;;;;;;;;;;;;;;;;5094096;28;20261;-58
2021/04/13 19:01:49;;;;;;;;;;;;;;;;;;5093842;28;19912;-58
2021/04/13 19:04:46;;;;;;;;;;;;;;;;;;5079757;28;19920;-57
2021/04/13 19:07:21;;;;;;;;;;;;;;;;;;5076026;28;19916;-57
2021/04/13 19:09:56;;;;;;;;;;;;;;;;;;5075879;28;19904;-57
2021/04/13 19:12:25;;;;;;;;;;;;;;;;;;5093934;28;19966;-57
2021/04/13 19:14:54;;;;;;;;;;;;;;;;;;5093961;28;19911;-57
2021/04/13 19:17:23;;;;;;;;;;;;;;;;;;5094030;28;20345;-59
2021/04/13 19:19:53;;;;;;;;;;;;;;;;;;5091399;28;19905;-58
2021/04/13 19:22:24;;;;;;;;;;;;;;;;;;5093728;28;20002;-58
2021/04/13 19:24:50;;;;;;;;;;;;;;;;;;5076554;28;20332;-58
2021/04/13 19:27:17;;;;;;;;;;;;;;;;;;5075452;28;19926;-58
2021/04/13 19:29:58;;;;;;;;;;;;;;;;;;5093778;28;19904;-58
2021/04/13 19:32:24;;;;;;;;;;;;;;;;;;5076324;28;20257;-58
2021/04/13 19:35:03;;;;;;;;;;;;;;;;;;;;;
2021/04/13 19:37:39;;;;;;;;;;;;;;;;;;;;;
2021/04/13 19:42:57;;;;;;;;;;;;;;;;;;5093868;28;19912;-58
2021/04/13 19:45:39;;;;;;;;;;;;;;;;;;5094090;28;19904;-58
2021/04/13 19:48:05;;;;;;;;;;;;;;;;;;5074591;28;20268;-56
2021/04/13 19:50:41;;;;;;;;;;;;;;;;;;5092790;28;19965;-57
2021/04/13 19:53:15;;;;;;;;;;;;;;;;;;5093792;28;19904;-56